Weather History for Madison, SD

Change the Weather History Date:

Tuesday, December 27, 2011

  Actual Average Record
Temperature  
Mean Temperature 28 °F -  
Max Temperature 33 °F 25 °F 37 °F (2013)
Min Temperature 24 °F 6 °F 8 °F (2012)
Degree Days  
Heating Degree Days 36    
Moisture  
Dew Point 19 °F    
Average Humidity 68    
Maximum Humidity 100    
Minimum Humidity 32    
Precipitation  
Precipitation 0.00 in - - ()
Sea Level Pressure  
Sea Level Pressure 29.97 in    
Wind  
Wind Speed 16 mph (NNW)    
Max Wind Speed 23 mph    
Max Gust Speed 31 mph    
Visibility 10 miles    
Events      
Averages and records for this station are not official NWS values.
T = Trace of Precipitation, MM = Missing Value Source: NWS Daily Summary

Daily Weather History Graph

Daily Weather History Graph

Search for Another Location

Airport:

Trip Planner

Search our weather history database for the weather conditions in past years. The results will help you decide how hot, cold, wet, or windy it might be!

Date:

Astronomy

Dec. 27, 2011 Rise Set
Actual Time 8:02 AM CST 4:56 PM CST
Civil Twilight 7:29 AM CST 5:29 PM CST
Nautical Twilight 6:52 AM CST 6:06 PM CST
Astronomical Twilight 6:17 AM CST 6:41 PM CST
Moon 9:52 AM CST (12/27) 8:38 PM CST (12/27)
Length of Visible Light 10h 00m
Length of Day
8h 54m
Waxing Crescent, 11% of the Moon is Illuminated
Dec 27
Waxing Crescent
Jan 1
First Quarter
Jan 9
Full
Jan 16
Last Quarter
Jan 23
New

Hourly Weather History & Observations

Time (CST) Temp. Windchill Dew Point Humidity Pressure Visibility Wind Dir Wind Speed Gust Speed Precip Events Conditions
12:10 AM 33.8 °F 22.8 °F 23.0 °F 65% 29.88 in 10.0 mi NW 18.4 mph 24.2 mph N/A   Clear
12:30 AM 32.0 °F 20.5 °F 23.0 °F 69% 29.88 in 10.0 mi NW 18.4 mph - N/A   Clear
12:50 AM 32.0 °F 19.8 °F 23.0 °F 69% 29.88 in 10.0 mi NW 20.7 mph 24.2 mph N/A   Clear
1:10 AM 32.0 °F 19.5 °F 23.0 °F 69% 29.87 in 10.0 mi NW 21.9 mph 25.3 mph N/A   Clear
1:30 AM 32.0 °F 19.8 °F 23.0 °F 69% 29.87 in 10.0 mi NW 20.7 mph 28.8 mph N/A   Clear
1:50 AM 32.0 °F 19.2 °F 23.0 °F 69% 29.88 in 10.0 mi NW 23.0 mph 29.9 mph N/A   Clear
2:10 AM 32.0 °F 19.8 °F 23.0 °F 69% 29.88 in 10.0 mi NW 20.7 mph 28.8 mph N/A   Clear
2:30 AM 32.0 °F 19.2 °F 23.0 °F 69% 29.89 in 10.0 mi NW 23.0 mph 29.9 mph N/A   Mostly Cloudy
2:50 AM 32.0 °F 19.2 °F 23.0 °F 69% 29.89 in 10.0 mi NW 23.0 mph 31.1 mph N/A   Overcast
3:10 AM 32.0 °F 19.8 °F 23.0 °F 69% 29.90 in 10.0 mi NW 20.7 mph 28.8 mph N/A   Overcast
3:30 AM 30.2 °F 17.4 °F 23.0 °F 75% 29.91 in 10.0 mi NW 20.7 mph 26.5 mph N/A   Overcast
3:50 AM 30.2 °F 17.4 °F 23.0 °F 75% 29.92 in 10.0 mi NW 20.7 mph 29.9 mph N/A   Overcast
4:10 AM 28.4 °F 15.1 °F 23.0 °F 80% 29.92 in 10.0 mi NW 20.7 mph 28.8 mph N/A   Scattered Clouds
4:30 AM 28.4 °F 15.8 °F 23.0 °F 80% 29.92 in 10.0 mi NW 18.4 mph 25.3 mph N/A   Clear
4:50 AM 28.4 °F 16.2 °F 23.0 °F 80% 29.93 in 10.0 mi NNW 17.3 mph - N/A   Clear
5:10 AM 28.4 °F 16.2 °F 23.0 °F 80% 29.94 in 10.0 mi NW 17.3 mph 24.2 mph N/A   Clear
5:30 AM 28.4 °F 15.4 °F 24.8 °F 86% 29.94 in 10.0 mi NNW 19.6 mph - N/A   Mostly Cloudy
5:50 AM 28.4 °F 15.1 °F 24.8 °F 86% 29.96 in 10.0 mi NNW 20.7 mph 24.2 mph N/A   Overcast
6:10 AM 28.4 °F 15.8 °F 24.8 °F 86% 29.96 in 10.0 mi NNW 18.4 mph 25.3 mph N/A   Overcast
6:30 AM 28.4 °F 17.5 °F 24.8 °F 86% 29.96 in 10.0 mi NNW 13.8 mph - N/A   Mostly Cloudy
6:50 AM 28.4 °F 17.0 °F 26.6 °F 93% 29.97 in 10.0 mi NW 15.0 mph 20.7 mph N/A   Mostly Cloudy
7:10 AM 26.6 °F 15.7 °F 26.6 °F 100% 29.97 in 10.0 mi NNW 12.7 mph - N/A   Scattered Clouds
7:30 AM 24.8 °F 13.4 °F 24.8 °F 100% 29.98 in 10.0 mi NNW 12.7 mph - N/A   Partly Cloudy
7:50 AM 26.6 °F 15.2 °F 26.6 °F 100% 29.98 in 10.0 mi NNW 13.8 mph - N/A   Mostly Cloudy
8:10 AM 28.4 °F 18.5 °F 28.4 °F 100% 30.00 in 10.0 mi North 11.5 mph - N/A   Overcast
8:30 AM 28.4 °F 17.0 °F 28.4 °F 100% 30.01 in 10.0 mi North 15.0 mph 27.6 mph N/A   Mostly Cloudy
8:50 AM 26.6 °F 16.2 °F 26.6 °F 100% 30.01 in 10.0 mi NNW 11.5 mph 18.4 mph N/A   Partly Cloudy
9:10 AM 28.4 °F 16.2 °F 28.4 °F 100% 30.01 in 10.0 mi North 17.3 mph 20.7 mph N/A   Clear
9:30 AM 28.4 °F 16.6 °F 28.4 °F 100% 30.01 in 10.0 mi North 16.1 mph - N/A   Clear
9:50 AM 28.4 °F 16.2 °F 24.8 °F 86% 30.02 in 10.0 mi NNW 17.3 mph 21.9 mph N/A   Clear
10:10 AM 28.4 °F 16.2 °F 23.0 °F 80% 30.03 in 10.0 mi North 17.3 mph - N/A   Clear
10:30 AM 28.4 °F 17.5 °F 21.2 °F 74% 30.03 in 10.0 mi North 13.8 mph 19.6 mph N/A   Clear
10:50 AM 28.4 °F 17.5 °F 21.2 °F 74% 30.03 in 10.0 mi North 13.8 mph 17.3 mph N/A   Clear
11:10 AM 28.4 °F 18.5 °F 19.4 °F 69% 30.03 in 10.0 mi North 11.5 mph - N/A   Clear
11:30 AM 28.4 °F 19.1 °F 19.4 °F 69% 30.03 in 10.0 mi North 10.4 mph - N/A   Clear
11:50 AM 28.4 °F 18.0 °F 15.8 °F 59% 30.02 in 10.0 mi North 12.7 mph 17.3 mph N/A   Clear
12:10 PM 28.4 °F 18.0 °F 14.0 °F 55% 30.01 in 10.0 mi North 12.7 mph - N/A   Clear
12:30 PM 28.4 °F 18.5 °F 12.2 °F 51% 30.01 in 10.0 mi North 11.5 mph 17.3 mph N/A   Clear
12:50 PM 30.2 °F 20.8 °F 8.6 °F 40% 30.00 in 10.0 mi North 11.5 mph - N/A   Clear
1:10 PM 32.0 °F 22.5 °F 8.6 °F 38% 30.01 in 10.0 mi NNW 12.7 mph - N/A   Clear
1:30 PM 32.0 °F 23.0 °F 10.4 °F 41% 30.01 in 10.0 mi NNW 11.5 mph - N/A   Clear
1:50 PM 32.0 °F 24.2 °F 8.6 °F 38% 30.00 in 10.0 mi North 9.2 mph - N/A   Clear
2:10 PM 32.0 °F 24.2 °F 6.8 °F 35% 29.99 in 10.0 mi NNE 9.2 mph - N/A   Clear
2:30 PM 32.0 °F 25.6 °F 5.0 °F 32% 29.98 in 10.0 mi North 6.9 mph - N/A   Clear
2:50 PM 32.0 °F 25.6 °F 6.8 °F 35% 30.00 in 10.0 mi North 6.9 mph - N/A   Clear
3:10 PM 32.0 °F 24.8 °F 6.8 °F 35% 30.01 in 10.0 mi NNW 8.1 mph - N/A   Clear
3:30 PM 32.0 °F 25.6 °F 6.8 °F 35% 30.01 in 10.0 mi NNW 6.9 mph - N/A   Clear
4:10 PM 30.2 °F 24.3 °F 8.6 °F 40% 30.01 in 10.0 mi North 5.8 mph - N/A   Clear
4:30 PM 28.4 °F 24.6 °F 8.6 °F 43% 30.00 in 10.0 mi NNE 3.5 mph - N/A   Clear
4:50 PM 28.4 °F - 8.6 °F 43% 30.00 in 10.0 mi Calm Calm - N/A   Clear
5:10 PM 28.4 °F - 8.6 °F 43% 30.00 in 10.0 mi Calm Calm - N/A   Mostly Cloudy
5:50 PM 26.6 °F 22.6 °F 8.6 °F 47% 29.98 in 10.0 mi South 3.5 mph - N/A   Overcast
6:10 PM 26.6 °F 22.6 °F 8.6 °F 47% 29.98 in 10.0 mi SSW 3.5 mph - N/A   Scattered Clouds
6:30 PM 26.6 °F 21.2 °F 8.6 °F 47% 29.98 in 10.0 mi WSW 4.6 mph - N/A   Clear
7:10 PM 24.8 °F 20.5 °F 8.6 °F 50% 29.98 in 10.0 mi SW 3.5 mph - N/A   Overcast
7:30 PM 24.8 °F 20.5 °F 10.4 °F 54% 29.98 in 10.0 mi SW 3.5 mph - N/A   Overcast
7:50 PM 24.8 °F 17.9 °F 8.6 °F 50% 29.97 in 10.0 mi SSW 5.8 mph - N/A   Overcast
8:10 PM 24.8 °F 20.5 °F 8.6 °F 50% 29.97 in 10.0 mi SSW 3.5 mph - N/A   Overcast
8:30 PM 24.8 °F 19.1 °F 8.6 °F 50% 29.97 in 10.0 mi SSW 4.6 mph - N/A   Overcast
8:50 PM 24.8 °F 17.9 °F 10.4 °F 54% 29.96 in 10.0 mi South 5.8 mph - N/A   Mostly Cloudy
9:10 PM 24.8 °F 19.1 °F 10.4 °F 54% 29.95 in 10.0 mi South 4.6 mph - N/A   Overcast
9:30 PM 23.0 °F 14.7 °F 8.6 °F 54% 29.94 in 10.0 mi South 6.9 mph - N/A   Overcast
9:50 PM 23.0 °F 13.9 °F 8.6 °F 54% 29.94 in 10.0 mi South 8.1 mph - N/A   Mostly Cloudy
10:10 PM 24.8 °F 16.9 °F 10.4 °F 54% 29.94 in 10.0 mi South 6.9 mph - N/A   Overcast
10:30 PM 24.8 °F 16.9 °F 10.4 °F 54% 29.94 in 10.0 mi South 6.9 mph - N/A   Overcast
10:50 PM 24.8 °F 16.1 °F 10.4 °F 54% 29.94 in 10.0 mi South 8.1 mph - N/A   Overcast
11:10 PM 24.8 °F 16.9 °F 10.4 °F 54% 29.93 in 10.0 mi South 6.9 mph - N/A   Overcast
11:30 PM 24.8 °F 16.1 °F 8.6 °F 50% 29.93 in 10.0 mi South 8.1 mph - N/A   Overcast